Air Navigation Services of Czech Republic  
Last data update:  20.09.2021 16:26:29 UTC česká verze
   METEO Page displayed:  20.09.2021 16:27:43 UTC  
vysvětlivky
METAR EDDB 201620Z 31004KT 9999 FEW033 15/07 Q1022 NOSIG=
METAR EDDC 201620Z 02004KT 9999 FEW026 12/08 Q1022 NOSIG=
METAR EDDE 201620Z 03005KT 9999 BKN045 12/05 Q1022 NOSIG=
METAR EDDF 201620Z 02011KT 9999 FEW038 SCT042 16/07 Q1021 NOSIG=
METAR EDDM 201620Z 03003KT 9999 FEW032 14/08 Q1020 NOSIG=
METAR EDDN 201620Z 04003KT 360V080 9999 FEW035 BKN045 13/07 Q1021 NOSIG=
METAR EDDP 201620Z VRB01KT 9999 FEW045 13/06 Q1022 NOSIG=
METAR EDQM 201620Z 02006KT 9999 OVC039 10/05 Q1022=
METAR EPBY 201600Z 34007KT 320V020 CAVOK 14/04 Q1020=
METAR EPGD 201600Z 34011KT 9999 BKN030 11/05 Q1021=
METAR EPKK 201600Z 27007KT 9999 SCT024 BKN050 10/07 Q1019=
METAR EPKT 201600Z 26005KT 9999 -RA SCT019 BKN023 09/08 Q1019=
METAR EPLL 201600Z 35003KT 9999 FEW030 BKN035 10/05 Q1020=
METAR EPPO 201600Z 36006KT CAVOK 15/03 Q1021=
METAR EPRZ 201600Z 33009KT 7000 -SHRA SCT005 BKN013CB 07/06 Q1018=
METAR EPWA 201600Z 33010KT 9999 BKN033 09/03 Q1019 NOSIG=
METAR EPWR 201600Z 34006KT 9999 FEW030 13/07 Q1021=
METAR LHBP 201600Z 31009KT 9999 FEW048 BKN063 16/07 Q1017 NOSIG=
METAR LHSM 201545Z AUTO 01006KT 340V050 CAVOK 16/08 Q1019 NOSIG=
METAR LKBC 201630Z AUTO /////KT ///V/// 9999 OVC053 11/05 Q1021=
METAR LKCV 201600Z 29003KT 9999 FEW041 OVC060 13/06 Q1021 NOSIG RMK BLU BLU=
METAR LKKB 201600Z 01004KT 330V040 CAVOK 12/07 Q1021 NOSIG RMK BLU BLU=
METAR LKKU NIL
METAR LKKV 201600Z 04005KT 9999 OVC042 10/02 Q1021 RMK REG QNH 1017=
METAR LKLN 201630Z AUTO 04003KT 330V100 9999 FEW047 OVC054 12/04 Q1021=
METAR LKMT 201600Z 02006KT CAVOK 12/07 Q1020 NOSIG RMK REG QNH 1017=
METAR LKNA 201600Z 33008KT 9999 FEW032 BKN056 12/05 Q1020 NOSIG RMK BLU BLU=
METAR LKPD 201630Z 32002KT CAVOK 13/06 Q1021 RMK BLACK=
METAR LKPJ 201600Z AUTO VRB02KT 9999 SCT039/// BKN070/// 13/05 Q1020=
METAR LKPR 201600Z 02005KT 330V040 9999 FEW036 12/04 Q1021 NOSIG RMK REG QNH 1017=
METAR LKTB 201600Z 36003KT 330V030 CAVOK 14/05 Q1020 NOSIG RMK REG QNH 1017=
METAR LKVO NIL
METAR LOWI 201620Z 07008KT 040V100 9999 FEW030 SCT060 15/10 Q1019 NOSIG=
METAR LOWL 201620Z AUTO VRB01KT 9999 FEW044 OVC050 13/09 Q1021 NOSIG=
METAR LOWS 201620Z 25004KT 9999 FEW030 SCT038 BKN046 13/10 Q1021 NOSIG=
METAR LOWW 201620Z 31009KT 9999 FEW040 14/06 Q1020 NOSIG=
METAR LZIB 201600Z 35008KT 9999 FEW040 15/07 Q1019 NOSIG=
METAR LZKZ 201600Z 02013KT CAVOK 11/06 Q1017 NOSIG=
METAR LZMC NIL
METAR LZPP 201600Z 36009KT 9999 FEW035 13/06 Q1019=
METAR LZSL NIL
METAR LZTT 201600Z 14005KT 100V210 9999 SCT040 09/03 Q1017 NOSIG=
METAR LZZI 201600Z 36003KT 330V030 9999 BKN055 11/05 Q1019=